createdAt,value
2017-06-01T00:00:39.968Z,933.29
2017-06-01T00:01:52.380Z,933.28
2017-06-01T00:03:04.301Z,933.28
2017-06-01T00:04:31.256Z,933.27
2017-06-01T00:05:44.166Z,933.29
2017-06-01T00:06:56.575Z,933.26
2017-06-01T00:08:08.981Z,933.26
2017-06-01T00:09:22.082Z,933.28
2017-06-01T00:10:34.980Z,933.3
2017-06-01T00:11:47.881Z,933.27
2017-06-01T00:13:00.781Z,933.26
2017-06-01T00:14:13.879Z,933.26
2017-06-01T00:15:26.287Z,933.24
2017-06-01T00:16:39.188Z,933.21
2017-06-01T00:17:52.087Z,933.21
2017-06-01T00:19:04.984Z,933.22
2017-06-01T00:20:17.103Z,933.23
2017-06-01T00:21:30.002Z,933.28
2017-06-01T00:22:42.903Z,933.26
2017-06-01T00:23:54.825Z,933.27
2017-06-01T00:25:07.230Z,933.26
2017-06-01T00:26:20.131Z,933.26
2017-06-01T00:27:32.047Z,933.26
2017-06-01T00:28:44.453Z,933.24
2017-06-01T00:29:57.355Z,933.26
2017-06-01T00:31:24.305Z,933.18
2017-06-01T00:32:36.227Z,933.18
2017-06-01T00:33:49.124Z,933.22
2017-06-01T00:35:01.535Z,933.22
2017-06-01T00:36:14.156Z,933.2
2017-06-01T00:37:27.071Z,933.25
2017-06-01T00:38:39.988Z,933.24
2017-06-01T00:39:52.394Z,933.26
2017-06-01T00:41:05.000Z,933.27
2017-06-01T00:42:16.922Z,933.23
2017-06-01T00:43:29.348Z,933.23
2017-06-01T00:44:42.246Z,933.21
2017-06-01T00:45:55.143Z,933.27
2017-06-01T00:47:07.755Z,933.19
2017-06-01T00:48:20.166Z,933.22
2017-06-01T00:49:32.572Z,933.2
2017-06-01T00:50:44.491Z,933.19
2017-06-01T00:51:56.904Z,933.19
2017-06-01T00:53:09.311Z,933.15
2017-06-01T00:54:22.210Z,933.13
2017-06-01T00:55:35.109Z,933.14
2017-06-01T00:56:48.027Z,933.15
2017-06-01T00:58:00.435Z,933.16
2017-06-01T00:59:13.335Z,933.15
2017-06-01T01:00:26.238Z,933.16
2017-06-01T01:01:38.644Z,933.16
2017-06-01T01:02:51.050Z,933.17
2017-06-01T01:04:03.467Z,933.21
2017-06-01T01:05:16.360Z,933.21
2017-06-01T01:06:28.284Z,933.18
2017-06-01T01:07:41.186Z,933.13
2017-06-01T01:08:54.093Z,933.15
2017-06-01T01:10:06.994Z,933.19
2017-06-01T01:11:18.921Z,933.18
2017-06-01T01:12:31.822Z,933.18
2017-06-01T01:13:44.721Z,933.15
2017-06-01T01:14:57.621Z,933.17
2017-06-01T01:16:10.520Z,933.19
2017-06-01T01:17:22.933Z,933.21
2017-06-01T01:18:35.341Z,933.21
2017-06-01T01:19:48.315Z,933.18
2017-06-01T01:21:01.114Z,933.19
2017-06-01T01:22:13.414Z,933.18
2017-06-01T01:23:25.234Z,933.17
2017-06-01T01:24:38.221Z,933.17
2017-06-01T01:25:50.537Z,933.14
2017-06-01T01:27:03.319Z,933.13
2017-06-01T01:28:16.104Z,933.14
2017-06-01T01:29:28.410Z,933.1
2017-06-01T01:30:41.196Z,933.15
2017-06-01T01:31:53.976Z,933.15
2017-06-01T01:33:05.792Z,933.13
2017-06-01T01:34:18.093Z,933.12
2017-06-01T01:35:31.074Z,933.12
2017-06-01T01:36:43.854Z,933.1
2017-06-01T01:37:55.187Z,933.09
2017-06-01T01:39:07.965Z,933.07
2017-06-01T01:40:20.265Z,933.07
2017-06-01T01:41:33.049Z,933.06
2017-06-01T01:42:45.829Z,933.07
2017-06-01T01:43:58.612Z,933.08
2017-06-01T01:45:10.428Z,933.09
2017-06-01T01:46:22.729Z,933.07
2017-06-01T01:47:34.553Z,933.06
2017-06-01T01:48:47.329Z,933.03
2017-06-01T01:50:00.106Z,933.04
2017-06-01T01:51:12.885Z,933.07
2017-06-01T01:52:25.674Z,933.05
2017-06-01T01:53:37.969Z,933.04
2017-06-01T01:54:50.751Z,933.04
2017-06-01T01:56:03.540Z,933.06
2017-06-01T01:57:16.319Z,933.07
2017-06-01T01:58:28.618Z,933.04
2017-06-01T01:59:40.993Z,933.05
2017-06-01T02:00:53.771Z,933.01
2017-06-01T02:02:06.072Z,933
2017-06-01T02:03:32.929Z,933.01
2017-06-01T02:04:45.776Z,933.01
2017-06-01T02:05:57.700Z,933.02
2017-06-01T02:07:09.622Z,933.03
2017-06-01T02:08:22.524Z,932.99
2017-06-01T02:09:34.944Z,932.95
2017-06-01T02:10:47.858Z,932.91
2017-06-01T02:12:00.266Z,932.89
2017-06-01T02:13:13.367Z,932.9
2017-06-01T02:14:25.339Z,932.9
2017-06-01T02:15:37.753Z,932.87
2017-06-01T02:16:50.657Z,932.83
2017-06-01T02:18:03.554Z,932.82
2017-06-01T02:19:16.542Z,932.73
2017-06-01T02:20:28.457Z,932.74
2017-06-01T02:21:41.382Z,932.79
2017-06-01T02:22:54.286Z,932.77
2017-06-01T02:24:07.382Z,932.74
2017-06-01T02:25:18.809Z,932.76
2017-06-01T02:26:31.703Z,932.78
2017-06-01T02:27:44.108Z,932.72
2017-06-01T02:28:57.010Z,932.74
2017-06-01T02:30:09.908Z,932.73
2017-06-01T02:31:22.369Z,932.69
2017-06-01T02:32:34.286Z,932.69
2017-06-01T02:33:47.180Z,932.75
2017-06-01T02:36:27.025Z,932.72
2017-06-01T02:37:39.925Z,932.69
2017-06-01T02:38:52.903Z,932.68
2017-06-01T02:40:05.797Z,932.7
2017-06-01T02:41:18.205Z,932.68
2017-06-01T02:42:31.107Z,932.7
2017-06-01T02:43:44.016Z,932.73
2017-06-01T02:44:56.911Z,932.74
2017-06-01T02:46:10.613Z,932.69
2017-06-01T02:47:23.019Z,932.69
2017-06-01T02:48:35.918Z,932.64
2017-06-01T02:49:48.820Z,932.6
2017-06-01T02:51:01.445Z,932.59
2017-06-01T02:52:12.887Z,932.54
2017-06-01T02:53:25.804Z,932.5
2017-06-01T02:54:38.725Z,932.51
2017-06-01T02:55:51.647Z,932.52
2017-06-01T02:57:03.784Z,932.54
2017-06-01T02:58:16.701Z,932.53
2017-06-01T02:59:28.721Z,932.56
2017-06-01T03:00:41.637Z,932.56
2017-06-01T03:01:54.761Z,932.57
2017-06-01T03:03:07.203Z,932.6
2017-06-01T03:04:20.124Z,932.57
2017-06-01T03:05:33.095Z,932.5
2017-06-01T03:06:46.015Z,932.49
2017-06-01T03:07:58.441Z,932.5
2017-06-01T03:09:11.361Z,932.45
2017-06-01T03:10:24.277Z,932.47
2017-06-01T03:11:37.191Z,932.46
2017-06-01T03:12:49.816Z,932.46
2017-06-01T03:14:02.754Z,932.45
2017-06-01T03:15:15.670Z,932.45
2017-06-01T03:16:28.099Z,932.39
2017-06-01T03:17:40.532Z,932.41
2017-06-01T03:18:53.447Z,932.42
2017-06-01T03:20:05.871Z,932.43
2017-06-01T03:21:18.795Z,932.43
2017-06-01T03:22:31.226Z,932.43
2017-06-01T03:23:44.343Z,932.39
2017-06-01T03:24:57.263Z,932.36
2017-06-01T03:26:09.689Z,932.37
2017-06-01T03:27:22.607Z,932.35
2017-06-01T03:28:35.037Z,932.39
2017-06-01T03:29:47.953Z,932.39
2017-06-01T03:31:00.376Z,932.4
2017-06-01T03:32:12.806Z,932.36
2017-06-01T03:33:25.742Z,932.41
2017-06-01T03:34:38.364Z,932.36
2017-06-01T03:35:51.288Z,932.4
2017-06-01T03:37:04.208Z,932.39
2017-06-01T03:38:16.638Z,932.39
2017-06-01T03:39:29.064Z,932.33
2017-06-01T03:40:41.691Z,932.35
2017-06-01T03:41:54.606Z,932.36
2017-06-01T03:43:07.034Z,932.41
2017-06-01T03:44:19.460Z,932.38
2017-06-01T03:45:32.575Z,932.44
2017-06-01T03:46:45.492Z,932.43
2017-06-01T03:47:58.416Z,932.44
2017-06-01T03:49:10.349Z,932.42
2017-06-01T03:50:22.787Z,932.41
2017-06-01T03:51:35.213Z,932.45
2017-06-01T03:52:47.144Z,932.43
2017-06-01T03:53:59.571Z,932.4
2017-06-01T03:55:12.483Z,932.4
2017-06-01T03:56:25.400Z,932.36
2017-06-01T03:57:38.318Z,932.37
2017-06-01T03:58:51.289Z,932.35
2017-06-01T04:00:03.720Z,932.37
2017-06-01T04:01:16.150Z,932.3
2017-06-01T04:02:29.582Z,932.34
2017-06-01T04:03:42.011Z,932.33
2017-06-01T04:04:53.950Z,932.32
2017-06-01T04:06:06.868Z,932.32
2017-06-01T04:07:19.350Z,932.35
2017-06-01T04:08:31.778Z,932.32
2017-06-01T04:09:44.690Z,932.31
2017-06-01T04:10:57.607Z,932.32
2017-06-01T04:12:09.543Z,932.31
2017-06-01T04:13:22.462Z,932.29
2017-06-01T04:14:34.890Z,932.32
2017-06-01T04:15:47.807Z,932.32
2017-06-01T04:17:00.235Z,932.32
2017-06-01T04:18:12.661Z,932.33
2017-06-01T04:19:25.631Z,932.33
2017-06-01T04:20:38.054Z,932.39
2017-06-01T04:21:50.977Z,932.36
2017-06-01T04:23:02.913Z,932.34
2017-06-01T04:24:15.828Z,932.36
2017-06-01T04:25:28.744Z,932.32
2017-06-01T04:26:41.174Z,932.33
2017-06-01T04:27:54.099Z,932.33
2017-06-01T04:29:07.042Z,932.33
2017-06-01T04:30:18.977Z,932.28
2017-06-01T04:31:31.892Z,932.3
2017-06-01T04:32:43.828Z,932.32
2017-06-01T04:33:56.258Z,932.33
2017-06-01T04:35:09.372Z,932.3
2017-06-01T04:36:22.293Z,932.3
2017-06-01T04:37:34.726Z,932.34
2017-06-01T04:38:47.642Z,932.35
2017-06-01T04:40:00.271Z,932.35
2017-06-01T04:41:13.190Z,932.31
2017-06-01T04:42:25.621Z,932.29
2017-06-01T04:43:38.048Z,932.32
2017-06-01T04:44:50.980Z,932.3
2017-06-01T04:46:03.899Z,932.25
2017-06-01T04:47:16.328Z,932.28
2017-06-01T04:48:28.264Z,932.22
2017-06-01T04:49:40.898Z,932.26
2017-06-01T04:50:53.838Z,932.27
2017-06-01T04:52:06.754Z,932.25
2017-06-01T04:53:19.679Z,932.3
2017-06-01T04:54:32.105Z,932.3
2017-06-01T04:55:45.036Z,932.29
2017-06-01T04:57:11.710Z,932.32
2017-06-01T04:58:24.627Z,932.37
2017-06-01T04:59:37.600Z,932.4
2017-06-01T05:00:50.518Z,932.35
2017-06-01T05:02:03.636Z,932.36
2017-06-01T05:03:15.644Z,932.34
2017-06-01T05:04:28.127Z,932.36
2017-06-01T05:05:40.988Z,932.35
2017-06-01T05:06:53.852Z,932.3
2017-06-01T05:08:06.914Z,932.33
2017-06-01T05:09:19.284Z,932.29
2017-06-01T05:10:32.145Z,932.29
2017-06-01T05:11:45.024Z,932.18
2017-06-01T05:12:56.905Z,932.11
2017-06-01T05:14:09.771Z,932.08
2017-06-01T05:15:22.626Z,932.06
2017-06-01T05:16:35.000Z,932.03
2017-06-01T05:17:47.861Z,932.1
2017-06-01T05:19:00.235Z,932.03
2017-06-01T05:20:13.100Z,932.03
2017-06-01T05:21:24.985Z,932.04
2017-06-01T05:22:37.358Z,932.04
2017-06-01T05:23:49.734Z,932.02
2017-06-01T05:25:02.111Z,932.03
2017-06-01T05:26:13.998Z,931.99
2017-06-01T05:27:26.882Z,932.01
2017-06-01T05:28:39.255Z,932
2017-06-01T05:29:51.828Z,931.99
2017-06-01T05:31:04.694Z,932.01
2017-06-01T05:32:17.555Z,932.09
2017-06-01T05:33:29.936Z,932.06
2017-06-01T05:34:42.312Z,932.03
2017-06-01T05:35:55.172Z,932.06
2017-06-01T05:37:08.028Z,931.96
2017-06-01T05:38:19.844Z,931.94
2017-06-01T05:39:32.624Z,931.96
2017-06-01T05:40:45.122Z,931.95
2017-06-01T05:41:57.424Z,931.96
2017-06-01T05:43:10.207Z,931.98
2017-06-01T05:44:22.025Z,931.97
2017-06-01T05:45:35.002Z,931.94
2017-06-01T05:46:47.303Z,931.91
2017-06-01T05:47:59.601Z,931.9
2017-06-01T05:49:12.398Z,931.9
2017-06-01T05:50:25.311Z,931.89
2017-06-01T05:51:38.424Z,931.9
2017-06-01T05:52:50.371Z,931.89
2017-06-01T05:54:02.797Z,931.81
2017-06-01T05:55:15.714Z,931.84
2017-06-01T05:56:28.341Z,931.84
2017-06-01T05:57:40.767Z,931.88
2017-06-01T05:58:52.738Z,931.87
2017-06-01T06:00:05.655Z,931.84
2017-06-01T06:01:18.128Z,931.8
2017-06-01T06:02:31.241Z,931.83
2017-06-01T06:03:43.670Z,931.86
2017-06-01T06:04:56.592Z,931.81
2017-06-01T06:06:09.024Z,931.8
2017-06-01T06:07:21.649Z,931.79
2017-06-01T06:08:33.092Z,931.77
2017-06-01T06:09:46.018Z,931.75
2017-06-01T06:10:58.935Z,931.72
2017-06-01T06:12:11.854Z,931.65
2017-06-01T06:13:24.598Z,931.7
2017-06-01T06:14:37.017Z,931.62
2017-06-01T06:15:49.936Z,931.59
2017-06-01T06:17:02.855Z,931.57
2017-06-01T06:18:15.775Z,931.57
2017-06-01T06:19:28.692Z,931.54
2017-06-01T06:20:40.635Z,931.53
2017-06-01T06:21:53.061Z,931.48
2017-06-01T06:23:05.998Z,931.45
2017-06-01T06:24:18.626Z,931.46
2017-06-01T06:25:31.052Z,931.43
2017-06-01T06:26:43.969Z,931.43
2017-06-01T06:27:56.888Z,931.5
2017-06-01T06:29:09.517Z,931.54
2017-06-01T06:30:22.435Z,931.55
2017-06-01T06:31:34.860Z,931.61
2017-06-01T06:32:47.290Z,931.53
2017-06-01T06:33:59.221Z,931.5
2017-06-01T06:35:11.852Z,931.44
2017-06-01T06:36:24.280Z,931.47
2017-06-01T06:37:36.706Z,931.53
2017-06-01T06:38:49.132Z,931.48
2017-06-01T06:40:01.766Z,931.54
2017-06-01T06:41:14.683Z,931.51
2017-06-01T06:42:27.603Z,931.45
2017-06-01T06:43:39.545Z,931.49
2017-06-01T06:44:51.973Z,931.41
2017-06-01T06:46:05.091Z,931.39
2017-06-01T06:47:16.542Z,931.43
2017-06-01T06:48:28.481Z,931.45
2017-06-01T06:49:40.421Z,931.42
2017-06-01T06:50:52.565Z,931.45
2017-06-01T06:52:05.488Z,931.5
2017-06-01T06:53:17.914Z,931.49
2017-06-01T06:54:30.838Z,931.52
2017-06-01T06:55:43.266Z,931.52
2017-06-01T06:56:56.399Z,931.55
2017-06-01T06:58:09.321Z,931.54
2017-06-01T06:59:21.750Z,931.49
2017-06-01T07:00:34.667Z,931.53
2017-06-01T07:01:47.094Z,931.53
2017-06-01T07:03:00.012Z,931.56
2017-06-01T07:04:12.927Z,931.53
2017-06-01T07:05:25.851Z,931.49
2017-06-01T07:06:38.776Z,931.5
2017-06-01T07:07:51.693Z,931.48
2017-06-01T07:09:04.119Z,931.48
2017-06-01T07:10:17.053Z,931.41
2017-06-01T07:11:29.969Z,931.43
2017-06-01T07:14:08.881Z,931.44
2017-06-01T07:15:21.802Z,931.44
2017-06-01T07:16:34.231Z,931.37
2017-06-01T07:17:46.856Z,931.38
2017-06-01T07:18:59.279Z,931.34
2017-06-01T07:20:12.182Z,931.34
2017-06-01T07:21:25.091Z,931.28
2017-06-01T07:22:37.989Z,931.27
2017-06-01T07:23:51.085Z,931.33
2017-06-01T07:25:03.987Z,931.36
2017-06-01T07:26:16.888Z,931.34
2017-06-01T07:27:29.870Z,931.38
2017-06-01T07:28:43.052Z,931.44
2017-06-01T07:29:55.537Z,931.42
2017-06-01T07:31:08.023Z,931.4
2017-06-01T07:32:20.026Z,931.41
2017-06-01T07:33:33.011Z,931.37
2017-06-01T07:34:45.502Z,931.33
2017-06-01T07:35:57.992Z,931.37
2017-06-01T07:37:10.972Z,931.36
2017-06-01T07:38:23.952Z,931.35
2017-06-01T07:39:35.957Z,931.22
2017-06-01T07:40:48.953Z,931.24
2017-06-01T07:42:01.938Z,931.25
2017-06-01T07:43:14.923Z,931.18
2017-06-01T07:44:27.910Z,931.19
2017-06-01T07:45:40.596Z,931.21
2017-06-01T07:46:52.095Z,931.3
2017-06-01T07:48:05.077Z,931.31
2017-06-01T07:49:18.060Z,931.28
2017-06-01T07:50:29.565Z,931.35
2017-06-01T07:51:42.547Z,931.37
2017-06-01T07:52:55.034Z,931.41
2017-06-01T07:54:07.037Z,931.38
2017-06-01T07:55:19.026Z,931.38
2017-06-01T07:56:31.711Z,931.36
2017-06-01T07:57:44.694Z,931.37
2017-06-01T07:58:57.679Z,931.39
2017-06-01T08:00:10.164Z,931.38
2017-06-01T08:01:23.454Z,931.37
2017-06-01T08:02:36.461Z,931.41
2017-06-01T08:03:49.358Z,931.4
2017-06-01T08:05:02.194Z,931.39
2017-06-01T08:06:14.015Z,931.43
2017-06-01T08:07:41.069Z,931.45
2017-06-01T08:08:53.374Z,931.47
2017-06-01T08:10:06.154Z,931.52
2017-06-01T08:11:17.974Z,931.51
2017-06-01T08:12:30.473Z,931.52
2017-06-01T08:13:43.251Z,931.56
2017-06-01T08:14:55.606Z,931.54
2017-06-01T08:16:08.391Z,931.54
2017-06-01T08:17:21.171Z,931.54
2017-06-01T08:18:33.674Z,931.57
2017-06-01T08:19:45.971Z,931.56
2017-06-01T08:20:58.750Z,931.58
2017-06-01T08:22:11.050Z,931.52
2017-06-01T08:23:23.066Z,931.51
2017-06-01T08:24:35.848Z,931.53
2017-06-01T08:25:47.662Z,931.46
2017-06-01T08:27:00.446Z,931.47
2017-06-01T08:28:13.229Z,931.43
2017-06-01T08:29:26.208Z,931.48
2017-06-01T08:30:38.995Z,931.5
2017-06-01T08:31:51.774Z,931.51
2017-06-01T08:33:04.082Z,931.51
2017-06-01T08:34:15.905Z,931.52
2017-06-01T08:35:27.725Z,931.52
2017-06-01T08:36:40.023Z,931.51
2017-06-01T08:37:52.805Z,931.56
2017-06-01T08:39:04.616Z,931.57
2017-06-01T08:40:17.116Z,931.61
2017-06-01T08:41:28.936Z,931.62
2017-06-01T08:42:41.238Z,931.62
2017-06-01T08:43:53.537Z,931.64
2017-06-01T08:45:05.835Z,931.64
2017-06-01T08:46:18.820Z,931.7
2017-06-01T08:47:31.120Z,931.67
2017-06-01T08:48:43.900Z,931.73
2017-06-01T08:49:56.694Z,931.78
2017-06-01T08:51:08.617Z,931.79
2017-06-01T08:52:21.517Z,931.78
2017-06-01T08:53:33.926Z,931.8
2017-06-01T08:54:46.827Z,931.8
2017-06-01T08:55:59.723Z,931.81
2017-06-01T08:57:12.332Z,931.81
2017-06-01T08:58:24.741Z,931.79
2017-06-01T08:59:37.151Z,931.79
2017-06-01T09:00:50.054Z,931.82
2017-06-01T09:02:03.150Z,931.81
2017-06-01T09:03:15.078Z,931.84
2017-06-01T09:04:27.975Z,931.87
2017-06-01T09:05:40.878Z,931.85
2017-06-01T09:06:52.810Z,931.84
2017-06-01T09:08:05.706Z,931.8
2017-06-01T09:09:18.133Z,931.79
2017-06-01T09:10:30.543Z,931.79
2017-06-01T09:11:43.444Z,931.84
2017-06-01T09:12:56.559Z,931.82
2017-06-01T09:14:08.475Z,931.82
2017-06-01T09:15:20.883Z,931.89
2017-06-01T09:16:32.315Z,931.91
2017-06-01T09:17:44.243Z,931.86
2017-06-01T09:18:57.346Z,931.81
2017-06-01T09:20:09.755Z,931.79
2017-06-01T09:21:22.165Z,931.81
2017-06-01T09:22:35.065Z,931.77
2017-06-01T09:23:46.992Z,931.83
2017-06-01T09:24:59.602Z,931.82
2017-06-01T09:26:11.519Z,931.84
2017-06-01T09:27:23.440Z,931.83
2017-06-01T09:28:36.343Z,931.83
2017-06-01T09:29:48.953Z,931.86
2017-06-01T09:31:01.849Z,931.92
2017-06-01T09:32:14.749Z,931.95
2017-06-01T09:33:27.165Z,931.95
2017-06-01T09:34:40.064Z,931.94
2017-06-01T09:35:51.996Z,931.98
2017-06-01T09:37:04.914Z,931.95
2017-06-01T09:38:17.343Z,931.96
2017-06-01T09:39:30.262Z,931.94
2017-06-01T09:40:43.192Z,931.95
2017-06-01T09:41:55.615Z,931.94
2017-06-01T09:43:07.550Z,931.97
2017-06-01T09:44:19.974Z,931.94
2017-06-01T09:45:31.914Z,931.94
2017-06-01T09:46:44.831Z,931.96
2017-06-01T09:47:57.261Z,932
2017-06-01T09:49:09.717Z,932.09
2017-06-01T09:50:22.143Z,932.11
2017-06-01T09:51:34.281Z,932.15
2017-06-01T09:52:47.202Z,932.12
2017-06-01T09:54:00.150Z,932.09
2017-06-01T09:55:13.068Z,932.08
2017-06-01T09:56:25.988Z,932.06
2017-06-01T09:57:38.123Z,932
2017-06-01T09:58:51.059Z,932.05
2017-06-01T10:00:03.974Z,932.08
2017-06-01T10:01:16.408Z,932.12
2017-06-01T10:02:29.531Z,932.18
2017-06-01T10:03:41.956Z,932.23
2017-06-01T10:04:54.383Z,932.25
2017-06-01T10:06:06.319Z,932.26
2017-06-01T10:07:19.239Z,932.27
2017-06-01T10:08:31.670Z,932.26
2017-06-01T10:09:44.100Z,932.34
2017-06-01T10:10:57.021Z,932.28
2017-06-01T10:12:08.965Z,932.26
2017-06-01T10:13:21.101Z,932.21
2017-06-01T10:14:34.018Z,932.21
2017-06-01T10:15:46.936Z,932.13
2017-06-01T10:16:58.869Z,932.09
2017-06-01T10:18:10.801Z,932.12
2017-06-01T10:19:22.446Z,932.16
2017-06-01T10:20:35.350Z,932.15
2017-06-01T10:21:47.763Z,932.1
2017-06-01T10:23:00.171Z,932.1
2017-06-01T10:24:12.347Z,932.11
2017-06-01T10:25:25.250Z,932.19
2017-06-01T10:26:38.149Z,932.15
2017-06-01T10:27:51.057Z,932.14
2017-06-01T10:29:03.950Z,932.12
2017-06-01T10:30:15.878Z,932.13
2017-06-01T10:31:28.287Z,932.14
2017-06-01T10:32:41.187Z,932.14
2017-06-01T10:33:54.101Z,932.15
2017-06-01T10:35:07.199Z,932.19
2017-06-01T10:36:18.628Z,932.23
2017-06-01T10:37:30.553Z,932.31
2017-06-01T10:38:43.446Z,932.33
2017-06-01T10:39:55.853Z,932.32
2017-06-01T10:41:08.956Z,932.4
2017-06-01T10:42:21.370Z,932.4
2017-06-01T10:43:34.267Z,932.42
2017-06-01T10:44:47.168Z,932.37
2017-06-01T10:45:59.782Z,932.38
2017-06-01T10:47:11.700Z,932.35
2017-06-01T10:48:24.111Z,932.28
2017-06-01T10:49:36.520Z,932.32
2017-06-01T10:50:49.418Z,932.25
2017-06-01T10:52:02.516Z,932.26
2017-06-01T10:53:13.945Z,932.23
2017-06-01T10:54:26.361Z,932.18
2017-06-01T10:55:38.776Z,932.19
2017-06-01T10:56:50.215Z,932.26
2017-06-01T10:58:03.114Z,932.37
2017-06-01T10:59:16.011Z,932.42
2017-06-01T11:00:28.431Z,932.36
2017-06-01T11:01:40.839Z,932.29
2017-06-01T11:02:53.450Z,932.33
2017-06-01T11:04:06.352Z,932.43
2017-06-01T11:05:17.799Z,932.37
2017-06-01T11:06:30.722Z,932.43
2017-06-01T11:07:43.356Z,932.49
2017-06-01T11:08:56.277Z,932.51
2017-06-01T11:10:08.703Z,932.46
2017-06-01T11:11:21.134Z,932.43
2017-06-01T11:12:34.050Z,932.36
2017-06-01T11:13:47.169Z,932.42
2017-06-01T11:15:00.087Z,932.35
2017-06-01T11:16:13.042Z,932.42
2017-06-01T11:17:25.966Z,932.45
2017-06-01T11:18:38.395Z,932.46
2017-06-01T11:19:50.822Z,932.56
2017-06-01T11:21:03.737Z,932.6
2017-06-01T11:22:16.162Z,932.59
2017-06-01T11:23:28.099Z,932.63
2017-06-01T11:24:40.728Z,932.65
2017-06-01T11:25:53.648Z,932.69
2017-06-01T11:27:06.076Z,932.71
2017-06-01T11:28:18.016Z,932.75
2017-06-01T11:29:31.131Z,932.86
2017-06-01T11:30:44.052Z,932.92
2017-06-01T11:31:56.973Z,932.92
2017-06-01T11:33:09.892Z,932.9
2017-06-01T11:34:21.831Z,932.88
2017-06-01T11:35:34.559Z,932.98
2017-06-01T11:36:46.989Z,932.95
2017-06-01T11:37:59.419Z,932.94
2017-06-01T11:39:10.863Z,932.94
2017-06-01T11:40:23.302Z,932.97
2017-06-01T11:41:35.745Z,933.01
2017-06-01T11:42:48.175Z,933.02
2017-06-01T11:44:01.094Z,933.07
2017-06-01T11:45:13.538Z,933.06
2017-06-01T11:46:26.169Z,933.06
2017-06-01T11:47:39.090Z,933.23
2017-06-01T11:48:51.034Z,933.29
2017-06-01T11:50:03.950Z,933.28
2017-06-01T11:51:16.089Z,933.18
2017-06-01T11:52:29.011Z,933.19
2017-06-01T11:53:41.438Z,933.26
2017-06-01T11:54:54.352Z,933.23
2017-06-01T11:56:06.777Z,933.25
2017-06-01T11:57:19.212Z,933.21
2017-06-01T11:58:32.137Z,933.23
2017-06-01T11:59:44.565Z,933.28
2017-06-01T12:00:56.502Z,933.3
2017-06-01T12:02:09.128Z,933.3
2017-06-01T12:03:22.045Z,933.26
2017-06-01T12:04:34.474Z,933.29
2017-06-01T12:05:47.392Z,933.36
2017-06-01T12:07:00.317Z,933.33
2017-06-01T12:08:12.252Z,933.32
2017-06-01T12:09:24.683Z,933.36
2017-06-01T12:10:37.119Z,933.33
2017-06-01T12:11:50.037Z,933.34
2017-06-01T12:13:02.463Z,933.31
2017-06-01T12:14:14.893Z,933.34
2017-06-01T12:15:27.319Z,933.42
2017-06-01T12:16:40.245Z,933.38
2017-06-01T12:17:53.171Z,933.42
2017-06-01T12:19:06.089Z,933.38
2017-06-01T12:20:18.513Z,933.36
2017-06-01T12:21:30.510Z,933.34
2017-06-01T12:22:42.449Z,933.34
2017-06-01T12:23:54.874Z,933.35
2017-06-01T12:25:07.790Z,933.39
2017-06-01T12:26:19.241Z,933.41
2017-06-01T12:27:31.664Z,933.42
2017-06-01T12:28:44.636Z,933.44
2017-06-01T12:29:57.760Z,933.42
2017-06-01T12:31:10.184Z,933.4
2017-06-01T12:32:22.124Z,933.45
2017-06-01T12:33:34.557Z,933.48
2017-06-01T12:34:47.464Z,933.54
2017-06-01T12:36:00.241Z,933.5
2017-06-01T12:37:13.022Z,933.49
2017-06-01T12:38:25.323Z,933.45
2017-06-01T12:39:37.140Z,933.45
2017-06-01T12:40:49.452Z,933.43
2017-06-01T12:42:02.236Z,933.48
2017-06-01T12:43:14.539Z,933.49
2017-06-01T12:44:26.838Z,933.52
2017-06-01T12:45:39.134Z,933.41
2017-06-01T12:46:51.435Z,933.36
2017-06-01T12:48:04.217Z,933.38
2017-06-01T12:49:16.539Z,933.37
2017-06-01T12:50:28.834Z,933.43
2017-06-01T12:51:41.148Z,933.43
2017-06-01T12:52:53.931Z,933.43
2017-06-01T12:54:06.230Z,933.4
2017-06-01T12:55:19.014Z,933.38
2017-06-01T12:56:31.509Z,933.37
2017-06-01T12:57:43.807Z,933.44
2017-06-01T12:58:56.594Z,933.43
2017-06-01T13:00:09.374Z,933.47
2017-06-01T13:01:22.159Z,933.36
2017-06-01T13:02:35.142Z,933.34
2017-06-01T13:03:47.922Z,933.37
2017-06-01T13:05:00.708Z,933.35
2017-06-01T13:06:13.491Z,933.3
2017-06-01T13:07:25.944Z,933.29
2017-06-01T13:08:38.724Z,933.32
2017-06-01T13:09:51.026Z,933.16
2017-06-01T13:11:03.337Z,933.34
2017-06-01T13:12:16.126Z,933.33
2017-06-01T13:13:28.440Z,933.31
2017-06-01T13:14:41.228Z,933.26
2017-06-01T13:15:52.558Z,933.26
2017-06-01T13:17:05.342Z,933.33
2017-06-01T13:18:17.644Z,933.41
2017-06-01T13:19:29.945Z,933.41
2017-06-01T13:20:42.261Z,933.29
2017-06-01T13:21:54.563Z,933.32
2017-06-01T13:23:06.385Z,933.3
2017-06-01T13:24:17.922Z,933.31
2017-06-01T13:25:30.219Z,933.25
2017-06-01T13:26:43.019Z,933.28
2017-06-01T13:27:55.803Z,933.25
2017-06-01T13:29:08.591Z,933.23
2017-06-01T13:30:21.576Z,933.15
2017-06-01T13:31:34.358Z,933.14
2017-06-01T13:32:46.663Z,933.25
2017-06-01T13:33:59.441Z,933.24
2017-06-01T13:35:10.293Z,933.25
2017-06-01T13:36:23.074Z,933.32
2017-06-01T13:37:35.381Z,933.31
2017-06-01T13:38:48.516Z,933.34
2017-06-01T13:40:00.332Z,933.34
2017-06-01T13:41:12.630Z,933.35
2017-06-01T13:42:25.415Z,933.33
2017-06-01T13:43:37.716Z,933.35
2017-06-01T13:44:50.027Z,933.35
2017-06-01T13:46:02.807Z,933.29
2017-06-01T13:47:15.589Z,933.29
2017-06-01T13:48:28.368Z,933.24
2017-06-01T13:49:40.668Z,933.31
2017-06-01T13:50:52.487Z,933.32
2017-06-01T13:52:05.278Z,933.41
2017-06-01T13:53:17.586Z,933.36
2017-06-01T13:54:30.371Z,933.23
2017-06-01T13:55:42.668Z,933.33
2017-06-01T13:56:55.451Z,933.31
2017-06-01T13:58:08.230Z,933.28
2017-06-01T13:59:20.532Z,933.27
2017-06-01T14:00:33.317Z,933.28
2017-06-01T14:01:45.614Z,933.36
2017-06-01T14:02:57.429Z,933.3
2017-06-01T14:04:09.729Z,933.34
2017-06-01T14:05:22.024Z,933.17
2017-06-01T14:06:34.574Z,933.31
2017-06-01T14:07:46.874Z,933.33
2017-06-01T14:08:59.655Z,933.29
2017-06-01T14:10:11.958Z,933.24
2017-06-01T14:11:24.743Z,933.18
2017-06-01T14:12:37.723Z,933.2
2017-06-01T14:13:50.227Z,933.24
2017-06-01T14:15:03.009Z,933.16
2017-06-01T14:16:15.309Z,933.06
2017-06-01T14:17:28.101Z,933.03
2017-06-01T14:18:39.918Z,933.08
2017-06-01T14:19:52.700Z,933.09
2017-06-01T14:21:05.487Z,933.01
2017-06-01T14:22:17.586Z,932.98
2017-06-01T14:23:30.373Z,932.92
2017-06-01T14:24:42.672Z,933.07
2017-06-01T14:25:55.459Z,933.12
2017-06-01T14:27:07.761Z,933.18
2017-06-01T14:28:20.555Z,933.07
2017-06-01T14:29:33.355Z,933.19
2017-06-01T14:30:45.655Z,933.18
2017-06-01T14:31:58.440Z,933.26
2017-06-01T14:33:10.942Z,933.27
2017-06-01T14:34:23.248Z,933.3
2017-06-01T14:35:36.030Z,933.25
2017-06-01T14:36:48.332Z,933.35
2017-06-01T14:38:01.118Z,933.36
2017-06-01T14:39:13.417Z,933.29
2017-06-01T14:40:26.205Z,933.22
2017-06-01T14:41:38.512Z,933.2
2017-06-01T14:42:51.296Z,933.15
2017-06-01T14:45:29.494Z,933.16
2017-06-01T14:46:41.799Z,933.21
2017-06-01T14:47:54.097Z,933.22
2017-06-01T14:49:06.473Z,933.18
2017-06-01T14:50:18.392Z,933.24
2017-06-01T14:51:31.295Z,933.16
2017-06-01T14:52:43.707Z,933.17
2017-06-01T14:53:56.122Z,933.16
2017-06-01T14:55:08.046Z,933.04
2017-06-01T14:56:19.482Z,933.02
2017-06-01T14:57:32.380Z,933.04
2017-06-01T14:58:45.282Z,933.03
2017-06-01T14:59:57.693Z,933.07
2017-06-01T15:01:10.596Z,933.05
2017-06-01T15:02:23.010Z,933.02
2017-06-01T15:03:35.912Z,933.04
2017-06-01T15:04:48.823Z,933.06
2017-06-01T15:06:01.231Z,933.05
2017-06-01T15:07:13.643Z,933.02
2017-06-01T15:08:26.055Z,933.04
2017-06-01T15:09:38.465Z,932.95
2017-06-01T15:10:51.072Z,932.97
2017-06-01T15:12:03.977Z,932.94
2017-06-01T15:13:16.396Z,932.99